sensor_id;sensor_type;location;lat;lon;timestamp;temperature;humidity
30694;DHT22;17446;48.022;-1.740;2022-08-21T00:00:47;19.00;98.70
30694;DHT22;17446;48.022;-1.740;2022-08-21T00:03:14;18.90;98.80
30694;DHT22;17446;48.022;-1.740;2022-08-21T00:05:42;18.90;98.90
30694;DHT22;17446;48.022;-1.740;2022-08-21T00:08:08;18.90;98.90
30694;DHT22;17446;48.022;-1.740;2022-08-21T00:10:33;18.80;99.00
30694;DHT22;17446;48.022;-1.740;2022-08-21T00:13:00;18.80;99.00
30694;DHT22;17446;48.022;-1.740;2022-08-21T00:15:28;18.80;99.20
30694;DHT22;17446;48.022;-1.740;2022-08-21T00:17:54;18.80;99.20
30694;DHT22;17446;48.022;-1.740;2022-08-21T00:20:20;18.80;99.20
30694;DHT22;17446;48.022;-1.740;2022-08-21T00:22:45;18.80;99.20
30694;DHT22;17446;48.022;-1.740;2022-08-21T00:25:12;18.70;99.30
30694;DHT22;17446;48.022;-1.740;2022-08-21T00:27:38;18.70;99.40
30694;DHT22;17446;48.022;-1.740;2022-08-21T00:30:05;18.70;99.40
30694;DHT22;17446;48.022;-1.740;2022-08-21T00:32:31;18.70;99.50
30694;DHT22;17446;48.022;-1.740;2022-08-21T00:34:56;18.70;99.50
30694;DHT22;17446;48.022;-1.740;2022-08-21T00:37:22;18.60;99.50
30694;DHT22;17446;48.022;-1.740;2022-08-21T00:39:48;18.60;99.60
30694;DHT22;17446;48.022;-1.740;2022-08-21T00:42:13;18.60;99.70
30694;DHT22;17446;48.022;-1.740;2022-08-21T00:44:43;18.60;99.70
30694;DHT22;17446;48.022;-1.740;2022-08-21T00:47:09;18.60;99.70
30694;DHT22;17446;48.022;-1.740;2022-08-21T00:49:35;18.60;99.80
30694;DHT22;17446;48.022;-1.740;2022-08-21T00:52:01;18.50;99.80
30694;DHT22;17446;48.022;-1.740;2022-08-21T00:54:27;18.50;99.80
30694;DHT22;17446;48.022;-1.740;2022-08-21T00:56:59;18.50;99.90
30694;DHT22;17446;48.022;-1.740;2022-08-21T00:59:25;18.50;99.90
30694;DHT22;17446;48.022;-1.740;2022-08-21T01:01:51;18.50;99.90
30694;DHT22;17446;48.022;-1.740;2022-08-21T01:04:17;18.40;99.90
30694;DHT22;17446;48.022;-1.740;2022-08-21T01:06:43;18.40;99.90
30694;DHT22;17446;48.022;-1.740;2022-08-21T01:09:08;18.40;99.90
30694;DHT22;17446;48.022;-1.740;2022-08-21T01:11:34;18.30;99.90
30694;DHT22;17446;48.022;-1.740;2022-08-21T01:14:00;18.30;99.90
30694;DHT22;17446;48.022;-1.740;2022-08-21T01:16:26;18.30;99.90
30694;DHT22;17446;48.022;-1.740;2022-08-21T01:18:51;18.20;99.90
30694;DHT22;17446;48.022;-1.740;2022-08-21T01:21:21;18.20;99.90
30694;DHT22;17446;48.022;-1.740;2022-08-21T01:23:48;18.20;99.90
30694;DHT22;17446;48.022;-1.740;2022-08-21T01:26:15;18.20;99.90
30694;DHT22;17446;48.022;-1.740;2022-08-21T01:28:54;18.10;99.90
30694;DHT22;17446;48.022;-1.740;2022-08-21T01:31:22;18.20;99.90
30694;DHT22;17446;48.022;-1.740;2022-08-21T01:33:48;18.20;99.90
30694;DHT22;17446;48.022;-1.740;2022-08-21T01:36:14;18.10;99.90
30694;DHT22;17446;48.022;-1.740;2022-08-21T01:38:39;18.10;99.90
30694;DHT22;17446;48.022;-1.740;2022-08-21T01:41:05;18.10;99.90
30694;DHT22;17446;48.022;-1.740;2022-08-21T01:43:31;18.10;99.90
30694;DHT22;17446;48.022;-1.740;2022-08-21T01:45:56;18.10;99.90
30694;DHT22;17446;48.022;-1.740;2022-08-21T01:48:22;18.10;99.90
30694;DHT22;17446;48.022;-1.740;2022-08-21T01:50:47;18.10;99.90
30694;DHT22;17446;48.022;-1.740;2022-08-21T01:53:13;18.10;99.90
30694;DHT22;17446;48.022;-1.740;2022-08-21T01:55:41;18.00;99.90
30694;DHT22;17446;48.022;-1.740;2022-08-21T01:58:06;18.00;99.90
30694;DHT22;17446;48.022;-1.740;2022-08-21T02:00:32;18.00;99.90
30694;DHT22;17446;48.022;-1.740;2022-08-21T02:02:57;18.00;99.90
30694;DHT22;17446;48.022;-1.740;2022-08-21T02:05:23;17.90;99.90
30694;DHT22;17446;48.022;-1.740;2022-08-21T02:07:49;17.90;99.90
30694;DHT22;17446;48.022;-1.740;2022-08-21T02:10:17;17.90;99.90
30694;DHT22;17446;48.022;-1.740;2022-08-21T02:12:43;17.90;99.90
30694;DHT22;17446;48.022;-1.740;2022-08-21T02:15:08;17.80;99.90
30694;DHT22;17446;48.022;-1.740;2022-08-21T02:17:42;17.80;99.90
30694;DHT22;17446;48.022;-1.740;2022-08-21T02:20:09;17.80;99.90
30694;DHT22;17446;48.022;-1.740;2022-08-21T02:22:35;17.80;99.90
30694;DHT22;17446;48.022;-1.740;2022-08-21T02:25:01;17.70;99.90
30694;DHT22;17446;48.022;-1.740;2022-08-21T02:27:26;17.70;99.90
30694;DHT22;17446;48.022;-1.740;2022-08-21T02:29:52;17.70;99.90
30694;DHT22;17446;48.022;-1.740;2022-08-21T02:32:18;17.70;99.90
30694;DHT22;17446;48.022;-1.740;2022-08-21T02:34:44;17.60;99.90
30694;DHT22;17446;48.022;-1.740;2022-08-21T02:37:11;17.60;99.90
30694;DHT22;17446;48.022;-1.740;2022-08-21T02:39:37;17.60;99.90
30694;DHT22;17446;48.022;-1.740;2022-08-21T02:42:02;17.60;99.90
30694;DHT22;17446;48.022;-1.740;2022-08-21T02:44:28;17.60;99.90
30694;DHT22;17446;48.022;-1.740;2022-08-21T02:46:53;17.60;99.90
30694;DHT22;17446;48.022;-1.740;2022-08-21T02:49:19;17.60;99.90
30694;DHT22;17446;48.022;-1.740;2022-08-21T02:51:44;17.60;99.90
30694;DHT22;17446;48.022;-1.740;2022-08-21T02:54:10;17.60;99.90
30694;DHT22;17446;48.022;-1.740;2022-08-21T02:56:35;17.60;99.90
30694;DHT22;17446;48.022;-1.740;2022-08-21T02:59:01;17.60;99.90
30694;DHT22;17446;48.022;-1.740;2022-08-21T03:01:27;17.60;99.90
30694;DHT22;17446;48.022;-1.740;2022-08-21T03:03:52;17.60;99.90
30694;DHT22;17446;48.022;-1.740;2022-08-21T03:06:19;17.60;99.90
30694;DHT22;17446;48.022;-1.740;2022-08-21T03:08:45;17.60;99.90
30694;DHT22;17446;48.022;-1.740;2022-08-21T03:11:12;17.60;99.90
30694;DHT22;17446;48.022;-1.740;2022-08-21T03:13:37;17.60;99.90
30694;DHT22;17446;48.022;-1.740;2022-08-21T03:16:04;17.60;99.90
30694;DHT22;17446;48.022;-1.740;2022-08-21T03:18:29;17.60;99.90
30694;DHT22;17446;48.022;-1.740;2022-08-21T03:20:55;17.50;99.90
30694;DHT22;17446;48.022;-1.740;2022-08-21T03:23:21;17.50;99.90
30694;DHT22;17446;48.022;-1.740;2022-08-21T03:25:47;17.50;99.90
30694;DHT22;17446;48.022;-1.740;2022-08-21T03:28:15;17.50;99.90
30694;DHT22;17446;48.022;-1.740;2022-08-21T03:30:41;17.50;99.90
30694;DHT22;17446;48.022;-1.740;2022-08-21T03:33:07;17.50;99.90
30694;DHT22;17446;48.022;-1.740;2022-08-21T03:35:32;17.50;99.90
30694;DHT22;17446;48.022;-1.740;2022-08-21T03:37:58;17.50;99.90
30694;DHT22;17446;48.022;-1.740;2022-08-21T03:40:23;17.50;99.90
30694;DHT22;17446;48.022;-1.740;2022-08-21T03:42:50;17.50;99.90
30694;DHT22;17446;48.022;-1.740;2022-08-21T03:45:16;17.50;99.90
30694;DHT22;17446;48.022;-1.740;2022-08-21T03:47:55;17.50;99.90
30694;DHT22;17446;48.022;-1.740;2022-08-21T03:50:22;17.50;99.90
30694;DHT22;17446;48.022;-1.740;2022-08-21T03:52:48;17.50;99.90
30694;DHT22;17446;48.022;-1.740;2022-08-21T03:55:14;17.50;99.90
30694;DHT22;17446;48.022;-1.740;2022-08-21T03:57:39;17.50;99.90
30694;DHT22;17446;48.022;-1.740;2022-08-21T04:00:05;17.60;99.90
30694;DHT22;17446;48.022;-1.740;2022-08-21T04:02:33;17.60;99.90
30694;DHT22;17446;48.022;-1.740;2022-08-21T04:04:58;17.60;99.90
30694;DHT22;17446;48.022;-1.740;2022-08-21T04:07:24;17.60;99.90
30694;DHT22;17446;48.022;-1.740;2022-08-21T04:09:49;17.60;99.90
30694;DHT22;17446;48.022;-1.740;2022-08-21T04:12:15;17.50;99.90
30694;DHT22;17446;48.022;-1.740;2022-08-21T04:14:40;17.50;99.90
30694;DHT22;17446;48.022;-1.740;2022-08-21T04:17:07;17.60;99.90
30694;DHT22;17446;48.022;-1.740;2022-08-21T04:19:32;17.60;99.90
30694;DHT22;17446;48.022;-1.740;2022-08-21T04:21:58;17.60;99.90
30694;DHT22;17446;48.022;-1.740;2022-08-21T04:24:23;17.60;99.90
30694;DHT22;17446;48.022;-1.740;2022-08-21T04:26:48;17.70;99.90
30694;DHT22;17446;48.022;-1.740;2022-08-21T04:29:14;17.70;99.90
30694;DHT22;17446;48.022;-1.740;2022-08-21T04:31:39;17.70;99.90
30694;DHT22;17446;48.022;-1.740;2022-08-21T04:34:05;17.70;99.90
30694;DHT22;17446;48.022;-1.740;2022-08-21T04:36:31;17.70;99.90
30694;DHT22;17446;48.022;-1.740;2022-08-21T04:38:57;17.70;99.90
30694;DHT22;17446;48.022;-1.740;2022-08-21T04:41:22;17.70;99.90
30694;DHT22;17446;48.022;-1.740;2022-08-21T04:43:48;17.70;99.90
30694;DHT22;17446;48.022;-1.740;2022-08-21T04:46:14;17.70;99.90
30694;DHT22;17446;48.022;-1.740;2022-08-21T04:48:40;17.70;99.90
30694;DHT22;17446;48.022;-1.740;2022-08-21T04:51:07;17.70;99.90
30694;DHT22;17446;48.022;-1.740;2022-08-21T04:53:35;17.70;99.90
30694;DHT22;17446;48.022;-1.740;2022-08-21T04:56:06;17.70;99.90
30694;DHT22;17446;48.022;-1.740;2022-08-21T04:58:33;17.70;99.90
30694;DHT22;17446;48.022;-1.740;2022-08-21T05:01:00;17.70;99.90
30694;DHT22;17446;48.022;-1.740;2022-08-21T05:03:26;17.60;99.90
30694;DHT22;17446;48.022;-1.740;2022-08-21T05:05:52;17.60;99.90
30694;DHT22;17446;48.022;-1.740;2022-08-21T05:08:18;17.60;99.90
30694;DHT22;17446;48.022;-1.740;2022-08-21T05:10:44;17.60;99.90
30694;DHT22;17446;48.022;-1.740;2022-08-21T05:13:11;17.60;99.90
30694;DHT22;17446;48.022;-1.740;2022-08-21T05:15:38;17.60;99.90
30694;DHT22;17446;48.022;-1.740;2022-08-21T05:18:03;17.60;99.90
30694;DHT22;17446;48.022;-1.740;2022-08-21T05:20:29;17.60;99.90
30694;DHT22;17446;48.022;-1.740;2022-08-21T05:22:54;17.60;99.90
30694;DHT22;17446;48.022;-1.740;2022-08-21T05:25:20;17.60;99.90
30694;DHT22;17446;48.022;-1.740;2022-08-21T05:27:46;17.60;99.90
30694;DHT22;17446;48.022;-1.740;2022-08-21T05:30:12;17.60;99.90
30694;DHT22;17446;48.022;-1.740;2022-08-21T05:32:38;17.60;99.90
30694;DHT22;17446;48.022;-1.740;2022-08-21T05:35:04;17.60;99.90
30694;DHT22;17446;48.022;-1.740;2022-08-21T05:37:30;17.60;99.90
30694;DHT22;17446;48.022;-1.740;2022-08-21T05:39:56;17.60;99.90
30694;DHT22;17446;48.022;-1.740;2022-08-21T05:42:21;17.60;99.90
30694;DHT22;17446;48.022;-1.740;2022-08-21T05:44:47;17.70;99.90
30694;DHT22;17446;48.022;-1.740;2022-08-21T05:47:12;17.60;99.90
30694;DHT22;17446;48.022;-1.740;2022-08-21T05:49:38;17.60;99.90
30694;DHT22;17446;48.022;-1.740;2022-08-21T05:52:04;17.70;99.90
30694;DHT22;17446;48.022;-1.740;2022-08-21T05:54:29;17.60;99.90
30694;DHT22;17446;48.022;-1.740;2022-08-21T05:56:55;17.70;99.90
30694;DHT22;17446;48.022;-1.740;2022-08-21T05:59:21;17.70;99.90
30694;DHT22;17446;48.022;-1.740;2022-08-21T06:01:47;17.70;99.90
30694;DHT22;17446;48.022;-1.740;2022-08-21T06:04:13;17.70;99.90
30694;DHT22;17446;48.022;-1.740;2022-08-21T06:06:39;17.80;99.90
30694;DHT22;17446;48.022;-1.740;2022-08-21T06:09:04;17.80;99.90
30694;DHT22;17446;48.022;-1.740;2022-08-21T06:11:31;17.80;99.90
30694;DHT22;17446;48.022;-1.740;2022-08-21T06:13:56;17.90;99.90
30694;DHT22;17446;48.022;-1.740;2022-08-21T06:16:22;17.90;99.90
30694;DHT22;17446;48.022;-1.740;2022-08-21T06:18:48;17.90;99.90
30694;DHT22;17446;48.022;-1.740;2022-08-21T06:21:13;18.00;99.90
30694;DHT22;17446;48.022;-1.740;2022-08-21T06:23:39;18.00;99.90
30694;DHT22;17446;48.022;-1.740;2022-08-21T06:26:06;18.10;99.90
30694;DHT22;17446;48.022;-1.740;2022-08-21T06:28:32;18.20;99.90
30694;DHT22;17446;48.022;-1.740;2022-08-21T06:30:58;18.20;99.90
30694;DHT22;17446;48.022;-1.740;2022-08-21T06:33:23;18.30;99.90
30694;DHT22;17446;48.022;-1.740;2022-08-21T06:35:49;18.40;99.90
30694;DHT22;17446;48.022;-1.740;2022-08-21T06:38:15;18.40;99.90
30694;DHT22;17446;48.022;-1.740;2022-08-21T06:40:40;18.50;99.90
30694;DHT22;17446;48.022;-1.740;2022-08-21T06:43:07;18.60;99.90
30694;DHT22;17446;48.022;-1.740;2022-08-21T06:45:33;18.70;99.90
30694;DHT22;17446;48.022;-1.740;2022-08-21T06:47:59;18.90;99.90
30694;DHT22;17446;48.022;-1.740;2022-08-21T06:50:24;18.90;99.90
30694;DHT22;17446;48.022;-1.740;2022-08-21T06:52:57;18.90;99.90
30694;DHT22;17446;48.022;-1.740;2022-08-21T06:55:23;19.00;99.90
30694;DHT22;17446;48.022;-1.740;2022-08-21T06:57:48;19.00;99.90
30694;DHT22;17446;48.022;-1.740;2022-08-21T07:00:14;19.00;99.90
30694;DHT22;17446;48.022;-1.740;2022-08-21T07:02:39;19.10;99.90
30694;DHT22;17446;48.022;-1.740;2022-08-21T07:05:05;19.10;99.90
30694;DHT22;17446;48.022;-1.740;2022-08-21T07:07:30;19.20;99.90
30694;DHT22;17446;48.022;-1.740;2022-08-21T07:09:56;19.30;99.90
30694;DHT22;17446;48.022;-1.740;2022-08-21T07:12:21;19.40;99.90
30694;DHT22;17446;48.022;-1.740;2022-08-21T07:14:47;19.50;99.90
30694;DHT22;17446;48.022;-1.740;2022-08-21T07:17:13;19.50;99.90
30694;DHT22;17446;48.022;-1.740;2022-08-21T07:19:39;19.60;99.90
30694;DHT22;17446;48.022;-1.740;2022-08-21T07:22:04;19.60;99.90
30694;DHT22;17446;48.022;-1.740;2022-08-21T07:24:30;19.70;99.90
30694;DHT22;17446;48.022;-1.740;2022-08-21T07:26:55;19.80;99.90
30694;DHT22;17446;48.022;-1.740;2022-08-21T07:29:21;19.90;99.90
30694;DHT22;17446;48.022;-1.740;2022-08-21T07:31:46;20.10;99.90
30694;DHT22;17446;48.022;-1.740;2022-08-21T07:34:12;20.20;99.90
30694;DHT22;17446;48.022;-1.740;2022-08-21T07:36:38;20.20;99.90
30694;DHT22;17446;48.022;-1.740;2022-08-21T07:39:03;20.30;99.90
30694;DHT22;17446;48.022;-1.740;2022-08-21T07:41:28;20.30;99.90
30694;DHT22;17446;48.022;-1.740;2022-08-21T07:43:57;20.30;99.90
30694;DHT22;17446;48.022;-1.740;2022-08-21T07:46:23;20.30;99.90
30694;DHT22;17446;48.022;-1.740;2022-08-21T07:48:49;20.30;99.90
30694;DHT22;17446;48.022;-1.740;2022-08-21T07:51:15;20.30;99.90
30694;DHT22;17446;48.022;-1.740;2022-08-21T07:53:42;20.40;99.90
30694;DHT22;17446;48.022;-1.740;2022-08-21T07:56:08;20.40;99.90
30694;DHT22;17446;48.022;-1.740;2022-08-21T07:58:33;20.40;99.90
30694;DHT22;17446;48.022;-1.740;2022-08-21T08:00:59;20.40;99.90
30694;DHT22;17446;48.022;-1.740;2022-08-21T08:03:25;20.50;99.80
30694;DHT22;17446;48.022;-1.740;2022-08-21T08:05:50;20.60;99.90
30694;DHT22;17446;48.022;-1.740;2022-08-21T08:08:16;20.60;99.80
30694;DHT22;17446;48.022;-1.740;2022-08-21T08:10:42;20.70;99.60
30694;DHT22;17446;48.022;-1.740;2022-08-21T08:13:08;20.80;99.50
30694;DHT22;17446;48.022;-1.740;2022-08-21T08:15:33;20.90;99.40
30694;DHT22;17446;48.022;-1.740;2022-08-21T08:17:59;21.00;99.40
30694;DHT22;17446;48.022;-1.740;2022-08-21T08:20:24;21.00;99.20
30694;DHT22;17446;48.022;-1.740;2022-08-21T08:22:51;21.10;99.10
30694;DHT22;17446;48.022;-1.740;2022-08-21T08:25:18;21.10;99.10
30694;DHT22;17446;48.022;-1.740;2022-08-21T08:27:43;21.20;98.80
30694;DHT22;17446;48.022;-1.740;2022-08-21T08:30:10;21.20;98.60
30694;DHT22;17446;48.022;-1.740;2022-08-21T08:32:36;21.30;98.60
30694;DHT22;17446;48.022;-1.740;2022-08-21T08:35:02;21.40;98.40
30694;DHT22;17446;48.022;-1.740;2022-08-21T08:37:27;21.50;98.50
30694;DHT22;17446;48.022;-1.740;2022-08-21T08:39:53;21.70;98.20
30694;DHT22;17446;48.022;-1.740;2022-08-21T08:42:29;21.80;98.10
30694;DHT22;17446;48.022;-1.740;2022-08-21T08:47:30;22.10;97.80
30694;DHT22;17446;48.022;-1.740;2022-08-21T08:54:49;22.40;97.10
30694;DHT22;17446;48.022;-1.740;2022-08-21T08:57:16;22.60;96.90
30694;DHT22;17446;48.022;-1.740;2022-08-21T08:59:43;22.70;96.50
30694;DHT22;17446;48.022;-1.740;2022-08-21T09:02:11;22.80;96.40
30694;DHT22;17446;48.022;-1.740;2022-08-21T09:04:36;22.90;95.90
30694;DHT22;17446;48.022;-1.740;2022-08-21T09:10:02;23.00;95.30
30694;DHT22;17446;48.022;-1.740;2022-08-21T09:20:23;23.50;94.60
30694;DHT22;17446;48.022;-1.740;2022-08-21T09:27:43;23.50;93.70
30694;DHT22;17446;48.022;-1.740;2022-08-21T09:30:09;23.50;93.60
30694;DHT22;17446;48.022;-1.740;2022-08-21T09:32:36;23.50;93.50
30694;DHT22;17446;48.022;-1.740;2022-08-21T09:35:16;23.50;93.30
30694;DHT22;17446;48.022;-1.740;2022-08-21T09:40:15;23.60;93.30
30694;DHT22;17446;48.022;-1.740;2022-08-21T09:42:53;23.60;93.10
30694;DHT22;17446;48.022;-1.740;2022-08-21T09:45:18;23.60;92.90
30694;DHT22;17446;48.022;-1.740;2022-08-21T09:47:44;23.60;92.60
30694;DHT22;17446;48.022;-1.740;2022-08-21T09:50:12;23.60;92.80
30694;DHT22;17446;48.022;-1.740;2022-08-21T09:52:45;23.60;93.00
30694;DHT22;17446;48.022;-1.740;2022-08-21T09:55:16;23.70;93.10
30694;DHT22;17446;48.022;-1.740;2022-08-21T09:58:01;23.80;92.90
30694;DHT22;17446;48.022;-1.740;2022-08-21T10:00:29;23.80;92.70
30694;DHT22;17446;48.022;-1.740;2022-08-21T10:03:07;23.90;92.60
30694;DHT22;17446;48.022;-1.740;2022-08-21T10:05:32;24.00;93.00
30694;DHT22;17446;48.022;-1.740;2022-08-21T10:07:58;24.10;92.80
30694;DHT22;17446;48.022;-1.740;2022-08-21T10:10:26;24.20;92.70
30694;DHT22;17446;48.022;-1.740;2022-08-21T10:18:17;23.60;92.90
30694;DHT22;17446;48.022;-1.740;2022-08-21T10:20:46;23.40;93.70
30694;DHT22;17446;48.022;-1.740;2022-08-21T10:25:43;23.10;94.00
30694;DHT22;17446;48.022;-1.740;2022-08-21T10:28:13;23.10;94.80
30694;DHT22;17446;48.022;-1.740;2022-08-21T10:30:52;23.00;95.00
30694;DHT22;17446;48.022;-1.740;2022-08-21T10:35:51;23.00;95.30
30694;DHT22;17446;48.022;-1.740;2022-08-21T10:38:40;23.00;95.10
30694;DHT22;17446;48.022;-1.740;2022-08-21T10:46:41;23.10;95.90
30694;DHT22;17446;48.022;-1.740;2022-08-21T10:49:22;23.10;96.20
30694;DHT22;17446;48.022;-1.740;2022-08-21T10:54:35;23.40;95.80
30694;DHT22;17446;48.022;-1.740;2022-08-21T10:57:07;23.50;95.70
30694;DHT22;17446;48.022;-1.740;2022-08-21T10:59:38;23.50;95.30
30694;DHT22;17446;48.022;-1.740;2022-08-21T11:04:34;23.50;95.10
30694;DHT22;17446;48.022;-1.740;2022-08-21T11:07:26;23.40;95.10
30694;DHT22;17446;48.022;-1.740;2022-08-21T11:09:48;23.20;95.20
30694;DHT22;17446;48.022;-1.740;2022-08-21T11:17:18;22.80;95.30
30694;DHT22;17446;48.022;-1.740;2022-08-21T11:19:50;22.70;95.50
30694;DHT22;17446;48.022;-1.740;2022-08-21T11:24:50;22.60;95.60
30694;DHT22;17446;48.022;-1.740;2022-08-21T11:27:23;22.70;95.80
30694;DHT22;17446;48.022;-1.740;2022-08-21T11:29:52;22.70;96.00
30694;DHT22;17446;48.022;-1.740;2022-08-21T11:44:54;21.80;97.90
30694;DHT22;17446;48.022;-1.740;2022-08-21T11:47:27;21.80;98.40
30694;DHT22;17446;48.022;-1.740;2022-08-21T11:52:33;21.70;98.70
30694;DHT22;17446;48.022;-1.740;2022-08-21T11:57:31;21.70;99.60
30694;DHT22;17446;48.022;-1.740;2022-08-21T12:02:29;21.70;99.90
30694;DHT22;17446;48.022;-1.740;2022-08-21T12:04:59;21.80;99.90
30694;DHT22;17446;48.022;-1.740;2022-08-21T12:09:57;22.10;99.90
30694;DHT22;17446;48.022;-1.740;2022-08-21T12:12:31;22.20;99.90
30694;DHT22;17446;48.022;-1.740;2022-08-21T12:17:38;22.20;99.90
30694;DHT22;17446;48.022;-1.740;2022-08-21T12:22:52;22.10;99.90
30694;DHT22;17446;48.022;-1.740;2022-08-21T12:25:18;22.10;99.90
30694;DHT22;17446;48.022;-1.740;2022-08-21T12:27:51;22.10;99.90
30694;DHT22;17446;48.022;-1.740;2022-08-21T12:30:20;22.10;99.90
30694;DHT22;17446;48.022;-1.740;2022-08-21T12:32:46;22.10;99.90
30694;DHT22;17446;48.022;-1.740;2022-08-21T12:35:20;22.10;99.90
30694;DHT22;17446;48.022;-1.740;2022-08-21T12:37:47;22.20;99.90
30694;DHT22;17446;48.022;-1.740;2022-08-21T12:43:00;22.40;99.90
30694;DHT22;17446;48.022;-1.740;2022-08-21T12:45:34;22.50;99.90
30694;DHT22;17446;48.022;-1.740;2022-08-21T12:48:01;22.60;99.90
30694;DHT22;17446;48.022;-1.740;2022-08-21T12:50:44;22.70;99.90
30694;DHT22;17446;48.022;-1.740;2022-08-21T12:55:54;23.10;99.90
30694;DHT22;17446;48.022;-1.740;2022-08-21T12:58:25;23.20;99.90
30694;DHT22;17446;48.022;-1.740;2022-08-21T13:00:56;23.40;99.90
30694;DHT22;17446;48.022;-1.740;2022-08-21T13:03:22;23.50;99.90
30694;DHT22;17446;48.022;-1.740;2022-08-21T13:05:48;23.50;99.90
30694;DHT22;17446;48.022;-1.740;2022-08-21T13:08:16;23.50;99.90
30694;DHT22;17446;48.022;-1.740;2022-08-21T13:10:43;23.50;99.90
30694;DHT22;17446;48.022;-1.740;2022-08-21T13:13:12;23.60;99.90
30694;DHT22;17446;48.022;-1.740;2022-08-21T13:15:40;23.70;99.90
30694;DHT22;17446;48.022;-1.740;2022-08-21T13:18:06;23.90;99.90
30694;DHT22;17446;48.022;-1.740;2022-08-21T13:20:33;24.00;99.80
30694;DHT22;17446;48.022;-1.740;2022-08-21T13:23:00;24.00;99.80
30694;DHT22;17446;48.022;-1.740;2022-08-21T13:25:27;24.00;99.30
30694;DHT22;17446;48.022;-1.740;2022-08-21T13:28:12;24.00;99.30
30694;DHT22;17446;48.022;-1.740;2022-08-21T13:30:44;23.90;99.10
30694;DHT22;17446;48.022;-1.740;2022-08-21T13:33:12;23.90;99.50
30694;DHT22;17446;48.022;-1.740;2022-08-21T13:35:49;23.80;99.80
30694;DHT22;17446;48.022;-1.740;2022-08-21T13:38:15;23.80;99.90
30694;DHT22;17446;48.022;-1.740;2022-08-21T13:43:13;23.60;99.60
30694;DHT22;17446;48.022;-1.740;2022-08-21T13:45:42;23.50;99.80
30694;DHT22;17446;48.022;-1.740;2022-08-21T13:48:08;23.40;99.90
30694;DHT22;17446;48.022;-1.740;2022-08-21T13:50:35;23.30;99.90
30694;DHT22;17446;48.022;-1.740;2022-08-21T13:53:02;23.10;99.90
30694;DHT22;17446;48.022;-1.740;2022-08-21T13:55:39;23.10;99.90
30694;DHT22;17446;48.022;-1.740;2022-08-21T13:58:05;23.00;99.90
30694;DHT22;17446;48.022;-1.740;2022-08-21T14:00:31;23.00;99.90
30694;DHT22;17446;48.022;-1.740;2022-08-21T14:03:10;22.90;99.90
30694;DHT22;17446;48.022;-1.740;2022-08-21T14:05:44;22.90;99.90
30694;DHT22;17446;48.022;-1.740;2022-08-21T14:08:11;22.80;99.90
30694;DHT22;17446;48.022;-1.740;2022-08-21T14:10:42;22.70;99.90
30694;DHT22;17446;48.022;-1.740;2022-08-21T14:13:26;22.70;99.90
30694;DHT22;17446;48.022;-1.740;2022-08-21T14:15:57;22.70;99.90
30694;DHT22;17446;48.022;-1.740;2022-08-21T14:18:23;22.70;99.90
30694;DHT22;17446;48.022;-1.740;2022-08-21T14:20:51;22.70;99.90
30694;DHT22;17446;48.022;-1.740;2022-08-21T14:23:24;22.70;99.90
30694;DHT22;17446;48.022;-1.740;2022-08-21T14:25:50;22.70;99.90
30694;DHT22;17446;48.022;-1.740;2022-08-21T14:28:22;22.70;99.90
30694;DHT22;17446;48.022;-1.740;2022-08-21T14:30:50;22.70;99.90
30694;DHT22;17446;48.022;-1.740;2022-08-21T14:33:26;22.70;99.90
30694;DHT22;17446;48.022;-1.740;2022-08-21T14:35:53;22.70;99.90
30694;DHT22;17446;48.022;-1.740;2022-08-21T14:38:19;22.70;99.90
30694;DHT22;17446;48.022;-1.740;2022-08-21T14:40:47;22.60;99.90
30694;DHT22;17446;48.022;-1.740;2022-08-21T14:43:13;22.60;99.90
30694;DHT22;17446;48.022;-1.740;2022-08-21T14:45:39;22.60;99.90
30694;DHT22;17446;48.022;-1.740;2022-08-21T14:48:06;22.60;99.90
30694;DHT22;17446;48.022;-1.740;2022-08-21T14:50:32;22.60;99.90
30694;DHT22;17446;48.022;-1.740;2022-08-21T14:52:57;22.50;99.90
30694;DHT22;17446;48.022;-1.740;2022-08-21T14:55:23;22.40;99.90
30694;DHT22;17446;48.022;-1.740;2022-08-21T14:57:50;22.40;99.90
30694;DHT22;17446;48.022;-1.740;2022-08-21T15:00:17;22.30;99.90
30694;DHT22;17446;48.022;-1.740;2022-08-21T15:02:43;22.30;99.90
30694;DHT22;17446;48.022;-1.740;2022-08-21T15:05:09;22.20;99.90
30694;DHT22;17446;48.022;-1.740;2022-08-21T15:07:35;22.20;99.90
30694;DHT22;17446;48.022;-1.740;2022-08-21T15:10:01;22.20;99.90
30694;DHT22;17446;48.022;-1.740;2022-08-21T15:12:26;22.20;99.90
30694;DHT22;17446;48.022;-1.740;2022-08-21T15:14:52;22.30;99.90
30694;DHT22;17446;48.022;-1.740;2022-08-21T15:17:18;22.40;99.90
30694;DHT22;17446;48.022;-1.740;2022-08-21T15:19:43;22.40;99.90
30694;DHT22;17446;48.022;-1.740;2022-08-21T15:22:09;22.40;99.90
30694;DHT22;17446;48.022;-1.740;2022-08-21T15:24:35;22.40;99.90
30694;DHT22;17446;48.022;-1.740;2022-08-21T15:27:01;22.40;99.90
30694;DHT22;17446;48.022;-1.740;2022-08-21T15:29:28;22.50;99.90
30694;DHT22;17446;48.022;-1.740;2022-08-21T15:31:55;22.50;99.90
30694;DHT22;17446;48.022;-1.740;2022-08-21T15:34:21;22.60;99.90
30694;DHT22;17446;48.022;-1.740;2022-08-21T15:36:47;22.60;99.90
30694;DHT22;17446;48.022;-1.740;2022-08-21T15:39:12;22.60;99.90
30694;DHT22;17446;48.022;-1.740;2022-08-21T15:41:38;22.60;99.90
30694;DHT22;17446;48.022;-1.740;2022-08-21T15:44:03;22.60;99.90
30694;DHT22;17446;48.022;-1.740;2022-08-21T15:46:29;22.50;99.90
30694;DHT22;17446;48.022;-1.740;2022-08-21T15:48:54;22.40;99.90
30694;DHT22;17446;48.022;-1.740;2022-08-21T15:51:20;22.40;99.90
30694;DHT22;17446;48.022;-1.740;2022-08-21T15:53:45;22.30;99.90
30694;DHT22;17446;48.022;-1.740;2022-08-21T15:56:17;22.30;99.90
30694;DHT22;17446;48.022;-1.740;2022-08-21T15:58:45;22.30;99.90
30694;DHT22;17446;48.022;-1.740;2022-08-21T16:01:10;22.30;99.90
30694;DHT22;17446;48.022;-1.740;2022-08-21T16:03:36;22.30;99.90
30694;DHT22;17446;48.022;-1.740;2022-08-21T16:06:02;22.30;99.90
30694;DHT22;17446;48.022;-1.740;2022-08-21T16:08:27;22.30;99.90
30694;DHT22;17446;48.022;-1.740;2022-08-21T16:10:53;22.30;99.90
30694;DHT22;17446;48.022;-1.740;2022-08-21T16:15:48;22.20;99.90
30694;DHT22;17446;48.022;-1.740;2022-08-21T16:18:13;22.10;99.90
30694;DHT22;17446;48.022;-1.740;2022-08-21T16:20:39;22.00;99.90
30694;DHT22;17446;48.022;-1.740;2022-08-21T16:23:04;21.90;99.90
30694;DHT22;17446;48.022;-1.740;2022-08-21T16:25:30;21.90;99.90
30694;DHT22;17446;48.022;-1.740;2022-08-21T16:27:57;21.90;99.90
30694;DHT22;17446;48.022;-1.740;2022-08-21T16:30:24;21.80;99.90
30694;DHT22;17446;48.022;-1.740;2022-08-21T16:32:50;21.80;99.90
30694;DHT22;17446;48.022;-1.740;2022-08-21T16:35:17;21.90;99.90
30694;DHT22;17446;48.022;-1.740;2022-08-21T16:37:43;21.80;99.90
30694;DHT22;17446;48.022;-1.740;2022-08-21T16:40:09;21.80;99.90
30694;DHT22;17446;48.022;-1.740;2022-08-21T16:42:34;21.80;99.90
30694;DHT22;17446;48.022;-1.740;2022-08-21T16:45:00;21.70;99.90
30694;DHT22;17446;48.022;-1.740;2022-08-21T16:47:28;21.70;99.90